sensor_id;sensor_type;location;lat;lon;timestamp;P1;durP1;ratioP1;P2;durP2;ratioP2
41426;SDS011;27171;51.812;19.514;2023-02-12T00:00:25;18.17;;;11.07;;
41426;SDS011;27171;51.812;19.514;2023-02-12T00:03:26;18.48;;;8.40;;
41426;SDS011;27171;51.812;19.514;2023-02-12T00:06:27;9.20;;;6.13;;
41426;SDS011;27171;51.812;19.514;2023-02-12T00:09:28;12.90;;;6.47;;
41426;SDS011;27171;51.812;19.514;2023-02-12T00:12:29;9.10;;;5.47;;
41426;SDS011;27171;51.812;19.514;2023-02-12T00:15:31;10.00;;;5.18;;
41426;SDS011;27171;51.812;19.514;2023-02-12T00:21:33;11.20;;;5.20;;
41426;SDS011;27171;51.812;19.514;2023-02-12T00:24:34;9.68;;;5.25;;
41426;SDS011;27171;51.812;19.514;2023-02-12T00:27:35;9.18;;;4.90;;
41426;SDS011;27171;51.812;19.514;2023-02-12T00:30:36;10.07;;;4.35;;
41426;SDS011;27171;51.812;19.514;2023-02-12T00:33:37;8.50;;;3.90;;
41426;SDS011;27171;51.812;19.514;2023-02-12T00:36:40;8.18;;;3.00;;
41426;SDS011;27171;51.812;19.514;2023-02-12T00:39:41;5.15;;;2.47;;
41426;SDS011;27171;51.812;19.514;2023-02-12T00:42:44;3.90;;;1.25;;
41426;SDS011;27171;51.812;19.514;2023-02-12T00:45:46;4.05;;;1.45;;
41426;SDS011;27171;51.812;19.514;2023-02-12T00:48:47;5.40;;;1.55;;
41426;SDS011;27171;51.812;19.514;2023-02-12T00:51:48;4.07;;;1.10;;
41426;SDS011;27171;51.812;19.514;2023-02-12T00:54:50;4.40;;;1.30;;
41426;SDS011;27171;51.812;19.514;2023-02-12T00:57:51;3.95;;;0.98;;
41426;SDS011;27171;51.812;19.514;2023-02-12T01:03:53;3.47;;;0.82;;
41426;SDS011;27171;51.812;19.514;2023-02-12T01:09:55;3.35;;;0.85;;
41426;SDS011;27171;51.812;19.514;2023-02-12T01:12:56;3.30;;;0.85;;
41426;SDS011;27171;51.812;19.514;2023-02-12T01:16:03;2.78;;;1.27;;
41426;SDS011;27171;51.812;19.514;2023-02-12T01:19:12;3.35;;;1.40;;
41426;SDS011;27171;51.812;19.514;2023-02-12T01:22:14;5.97;;;1.80;;
41426;SDS011;27171;51.812;19.514;2023-02-12T01:25:17;2.75;;;1.60;;
41426;SDS011;27171;51.812;19.514;2023-02-12T01:28:18;4.40;;;1.42;;
41426;SDS011;27171;51.812;19.514;2023-02-12T01:31:20;5.20;;;1.48;;
41426;SDS011;27171;51.812;19.514;2023-02-12T01:34:24;4.45;;;1.80;;
41426;SDS011;27171;51.812;19.514;2023-02-12T01:37:26;4.45;;;1.92;;
41426;SDS011;27171;51.812;19.514;2023-02-12T01:40:27;5.82;;;1.83;;
41426;SDS011;27171;51.812;19.514;2023-02-12T01:43:28;2.83;;;1.60;;
41426;SDS011;27171;51.812;19.514;2023-02-12T01:46:29;3.45;;;1.70;;
41426;SDS011;27171;51.812;19.514;2023-02-12T01:52:40;4.63;;;2.33;;
41426;SDS011;27171;51.812;19.514;2023-02-12T01:55:46;4.82;;;2.10;;
41426;SDS011;27171;51.812;19.514;2023-02-12T01:58:52;3.42;;;2.08;;
41426;SDS011;27171;51.812;19.514;2023-02-12T02:01:55;9.15;;;3.63;;
41426;SDS011;27171;51.812;19.514;2023-02-12T02:04:58;7.22;;;3.10;;
41426;SDS011;27171;51.812;19.514;2023-02-12T02:08:02;4.68;;;2.70;;
41426;SDS011;27171;51.812;19.514;2023-02-12T02:11:03;7.63;;;3.40;;
41426;SDS011;27171;51.812;19.514;2023-02-12T02:14:04;4.85;;;2.97;;
41426;SDS011;27171;51.812;19.514;2023-02-12T02:17:15;5.00;;;3.03;;
41426;SDS011;27171;51.812;19.514;2023-02-12T02:27:39;3.75;;;1.85;;
41426;SDS011;27171;51.812;19.514;2023-02-12T02:37:48;5.50;;;3.00;;
41426;SDS011;27171;51.812;19.514;2023-02-12T02:41:02;5.40;;;3.33;;
41426;SDS011;27171;51.812;19.514;2023-02-12T02:47:45;4.87;;;3.50;;
41426;SDS011;27171;51.812;19.514;2023-02-12T02:50:53;7.13;;;3.67;;
41426;SDS011;27171;51.812;19.514;2023-02-12T02:54:03;5.45;;;3.78;;
41426;SDS011;27171;51.812;19.514;2023-02-12T02:57:30;6.65;;;3.33;;
41426;SDS011;27171;51.812;19.514;2023-02-12T03:00:39;4.75;;;3.13;;
41426;SDS011;27171;51.812;19.514;2023-02-12T03:03:52;6.18;;;3.10;;
41426;SDS011;27171;51.812;19.514;2023-02-12T03:07:10;4.35;;;3.30;;
41426;SDS011;27171;51.812;19.514;2023-02-12T03:10:18;4.00;;;3.05;;
41426;SDS011;27171;51.812;19.514;2023-02-12T03:19:33;5.20;;;3.33;;
41426;SDS011;27171;51.812;19.514;2023-02-12T03:22:39;3.92;;;2.80;;
41426;SDS011;27171;51.812;19.514;2023-02-12T03:25:56;3.97;;;3.03;;
41426;SDS011;27171;51.812;19.514;2023-02-12T03:29:04;4.32;;;3.33;;
41426;SDS011;27171;51.812;19.514;2023-02-12T03:39:04;3.85;;;3.03;;
41426;SDS011;27171;51.812;19.514;2023-02-12T03:42:31;3.95;;;3.05;;
41426;SDS011;27171;51.812;19.514;2023-02-12T03:46:05;5.40;;;3.20;;
41426;SDS011;27171;51.812;19.514;2023-02-12T03:48:44;4.75;;;3.38;;
41426;SDS011;27171;51.812;19.514;2023-02-12T03:52:07;6.97;;;3.72;;
41426;SDS011;27171;51.812;19.514;2023-02-12T03:55:09;3.75;;;3.08;;
41426;SDS011;27171;51.812;19.514;2023-02-12T03:58:11;5.05;;;3.65;;
41426;SDS011;27171;51.812;19.514;2023-02-12T04:01:17;4.90;;;3.45;;
41426;SDS011;27171;51.812;19.514;2023-02-12T04:04:18;4.05;;;3.13;;
41426;SDS011;27171;51.812;19.514;2023-02-12T04:07:20;5.63;;;4.03;;
41426;SDS011;27171;51.812;19.514;2023-02-12T04:10:23;3.83;;;3.03;;
41426;SDS011;27171;51.812;19.514;2023-02-12T04:13:40;6.57;;;3.50;;
41426;SDS011;27171;51.812;19.514;2023-02-12T04:24:00;3.58;;;2.10;;
41426;SDS011;27171;51.812;19.514;2023-02-12T04:30:34;2.40;;;1.65;;
41426;SDS011;27171;51.812;19.514;2023-02-12T04:37:17;4.28;;;2.20;;
41426;SDS011;27171;51.812;19.514;2023-02-12T04:40:21;3.53;;;2.58;;
41426;SDS011;27171;51.812;19.514;2023-02-12T04:43:27;5.03;;;2.63;;
41426;SDS011;27171;51.812;19.514;2023-02-12T04:46:30;4.35;;;2.30;;
41426;SDS011;27171;51.812;19.514;2023-02-12T04:52:32;3.88;;;1.90;;
41426;SDS011;27171;51.812;19.514;2023-02-12T04:55:33;6.07;;;2.00;;
41426;SDS011;27171;51.812;19.514;2023-02-12T04:58:34;2.17;;;1.30;;
41426;SDS011;27171;51.812;19.514;2023-02-12T05:04:37;2.17;;;1.17;;
41426;SDS011;27171;51.812;19.514;2023-02-12T05:10:39;2.15;;;0.80;;
41426;SDS011;27171;51.812;19.514;2023-02-12T05:16:41;1.50;;;0.65;;
41426;SDS011;27171;51.812;19.514;2023-02-12T05:19:42;3.92;;;2.08;;
41426;SDS011;27171;51.812;19.514;2023-02-12T05:25:44;4.07;;;1.70;;
41426;SDS011;27171;51.812;19.514;2023-02-12T05:28:45;4.07;;;1.77;;
41426;SDS011;27171;51.812;19.514;2023-02-12T05:31:46;3.65;;;1.50;;
41426;SDS011;27171;51.812;19.514;2023-02-12T05:34:47;4.90;;;1.75;;
41426;SDS011;27171;51.812;19.514;2023-02-12T05:40:49;4.70;;;1.55;;
41426;SDS011;27171;51.812;19.514;2023-02-12T05:43:51;3.03;;;1.15;;
41426;SDS011;27171;51.812;19.514;2023-02-12T05:46:52;2.58;;;1.48;;
41426;SDS011;27171;51.812;19.514;2023-02-12T05:52:54;2.97;;;1.50;;
41426;SDS011;27171;51.812;19.514;2023-02-12T05:59:07;3.70;;;1.60;;
41426;SDS011;27171;51.812;19.514;2023-02-12T06:02:12;3.33;;;1.30;;
41426;SDS011;27171;51.812;19.514;2023-02-12T06:08:14;4.88;;;1.30;;
41426;SDS011;27171;51.812;19.514;2023-02-12T06:17:18;3.83;;;1.58;;
41426;SDS011;27171;51.812;19.514;2023-02-12T06:23:21;2.97;;;1.45;;
41426;SDS011;27171;51.812;19.514;2023-02-12T06:26:23;3.22;;;1.20;;
41426;SDS011;27171;51.812;19.514;2023-02-12T06:29:24;3.33;;;1.30;;
41426;SDS011;27171;51.812;19.514;2023-02-12T06:35:26;3.08;;;1.38;;
41426;SDS011;27171;51.812;19.514;2023-02-12T06:38:27;2.65;;;1.75;;
41426;SDS011;27171;51.812;19.514;2023-02-12T06:47:31;2.30;;;0.98;;
41426;SDS011;27171;51.812;19.514;2023-02-12T06:53:33;1.80;;;0.80;;
41426;SDS011;27171;51.812;19.514;2023-02-12T06:56:34;3.47;;;1.23;;
41426;SDS011;27171;51.812;19.514;2023-02-12T06:59:35;2.03;;;0.95;;
41426;SDS011;27171;51.812;19.514;2023-02-12T07:05:38;2.15;;;0.93;;
41426;SDS011;27171;51.812;19.514;2023-02-12T07:08:40;3.10;;;1.10;;
41426;SDS011;27171;51.812;19.514;2023-02-12T07:11:44;3.15;;;1.00;;
41426;SDS011;27171;51.812;19.514;2023-02-12T07:17:46;2.17;;;0.73;;
41426;SDS011;27171;51.812;19.514;2023-02-12T07:23:49;2.42;;;0.82;;
41426;SDS011;27171;51.812;19.514;2023-02-12T07:26:51;2.25;;;0.98;;
41426;SDS011;27171;51.812;19.514;2023-02-12T07:32:53;3.28;;;0.70;;
41426;SDS011;27171;51.812;19.514;2023-02-12T07:35:54;3.47;;;1.02;;
41426;SDS011;27171;51.812;19.514;2023-02-12T07:39:00;2.22;;;1.05;;
41426;SDS011;27171;51.812;19.514;2023-02-12T07:45:02;2.17;;;0.85;;
41426;SDS011;27171;51.812;19.514;2023-02-12T07:48:03;2.65;;;1.00;;
41426;SDS011;27171;51.812;19.514;2023-02-12T07:51:05;1.80;;;0.95;;
41426;SDS011;27171;51.812;19.514;2023-02-12T07:54:08;2.63;;;1.10;;
41426;SDS011;27171;51.812;19.514;2023-02-12T07:57:10;3.33;;;1.40;;
41426;SDS011;27171;51.812;19.514;2023-02-12T08:06:21;3.33;;;1.15;;
41426;SDS011;27171;51.812;19.514;2023-02-12T08:09:27;4.00;;;1.75;;
41426;SDS011;27171;51.812;19.514;2023-02-12T08:12:28;4.50;;;2.58;;
41426;SDS011;27171;51.812;19.514;2023-02-12T08:18:31;3.70;;;2.05;;
41426;SDS011;27171;51.812;19.514;2023-02-12T08:21:33;5.50;;;2.88;;
41426;SDS011;27171;51.812;19.514;2023-02-12T08:24:37;3.42;;;1.98;;
41426;SDS011;27171;51.812;19.514;2023-02-12T08:30:41;3.05;;;1.55;;
41426;SDS011;27171;51.812;19.514;2023-02-12T08:36:44;2.72;;;1.20;;
41426;SDS011;27171;51.812;19.514;2023-02-12T08:39:47;2.83;;;1.42;;
41426;SDS011;27171;51.812;19.514;2023-02-12T08:42:48;6.40;;;1.88;;
41426;SDS011;27171;51.812;19.514;2023-02-12T08:45:49;3.42;;;1.65;;
41426;SDS011;27171;51.812;19.514;2023-02-12T08:48:51;3.30;;;1.40;;
41426;SDS011;27171;51.812;19.514;2023-02-12T08:51:57;3.55;;;1.75;;
41426;SDS011;27171;51.812;19.514;2023-02-12T08:54:59;2.65;;;1.00;;
41426;SDS011;27171;51.812;19.514;2023-02-12T08:58:00;4.88;;;1.98;;
41426;SDS011;27171;51.812;19.514;2023-02-12T09:01:02;3.85;;;1.85;;
41426;SDS011;27171;51.812;19.514;2023-02-12T09:04:04;2.45;;;1.40;;
41426;SDS011;27171;51.812;19.514;2023-02-12T09:07:06;5.03;;;1.38;;
41426;SDS011;27171;51.812;19.514;2023-02-12T09:13:08;3.20;;;1.20;;
41426;SDS011;27171;51.812;19.514;2023-02-12T09:16:11;3.17;;;1.42;;
41426;SDS011;27171;51.812;19.514;2023-02-12T09:19:13;3.03;;;1.75;;
41426;SDS011;27171;51.812;19.514;2023-02-12T09:22:14;3.42;;;2.00;;
41426;SDS011;27171;51.812;19.514;2023-02-12T09:28:16;2.40;;;1.35;;
41426;SDS011;27171;51.812;19.514;2023-02-12T09:34:20;2.80;;;1.73;;
41426;SDS011;27171;51.812;19.514;2023-02-12T09:43:52;4.43;;;2.78;;
41426;SDS011;27171;51.812;19.514;2023-02-12T09:47:02;5.22;;;3.60;;
41426;SDS011;27171;51.812;19.514;2023-02-12T09:50:36;7.43;;;4.72;;
41426;SDS011;27171;51.812;19.514;2023-02-12T09:53:42;7.22;;;3.95;;
41426;SDS011;27171;51.812;19.514;2023-02-12T09:56:50;6.00;;;4.05;;
41426;SDS011;27171;51.812;19.514;2023-02-12T09:59:58;4.93;;;3.53;;
41426;SDS011;27171;51.812;19.514;2023-02-12T10:06:55;6.57;;;3.35;;
41426;SDS011;27171;51.812;19.514;2023-02-12T10:13:06;7.63;;;5.00;;
41426;SDS011;27171;51.812;19.514;2023-02-12T10:25:57;11.32;;;6.05;;
41426;SDS011;27171;51.812;19.514;2023-02-12T10:32:30;5.10;;;4.18;;
41426;SDS011;27171;51.812;19.514;2023-02-12T10:35:34;5.25;;;4.07;;
41426;SDS011;27171;51.812;19.514;2023-02-12T10:38:37;7.68;;;4.63;;
41426;SDS011;27171;51.812;19.514;2023-02-12T10:42:05;9.27;;;6.72;;
41426;SDS011;27171;51.812;19.514;2023-02-12T10:45:13;7.13;;;4.93;;
41426;SDS011;27171;51.812;19.514;2023-02-12T10:50:24;6.80;;;4.27;;
41426;SDS011;27171;51.812;19.514;2023-02-12T10:53:42;5.78;;;4.50;;
41426;SDS011;27171;51.812;19.514;2023-02-12T10:56:45;7.00;;;4.60;;
41426;SDS011;27171;51.812;19.514;2023-02-12T10:59:47;6.80;;;5.03;;
41426;SDS011;27171;51.812;19.514;2023-02-12T11:09:26;7.13;;;4.93;;
41426;SDS011;27171;51.812;19.514;2023-02-12T11:15:37;6.53;;;4.82;;
41426;SDS011;27171;51.812;19.514;2023-02-12T11:18:46;5.85;;;5.05;;
41426;SDS011;27171;51.812;19.514;2023-02-12T11:25:17;7.07;;;5.43;;
41426;SDS011;27171;51.812;19.514;2023-02-12T11:28:18;6.40;;;4.80;;
41426;SDS011;27171;51.812;19.514;2023-02-12T11:31:21;8.57;;;6.07;;
41426;SDS011;27171;51.812;19.514;2023-02-12T11:34:25;8.52;;;5.82;;
41426;SDS011;27171;51.812;19.514;2023-02-12T11:37:26;6.97;;;5.18;;
41426;SDS011;27171;51.812;19.514;2023-02-12T11:43:33;8.93;;;5.03;;
41426;SDS011;27171;51.812;19.514;2023-02-12T11:46:35;6.07;;;4.93;;
41426;SDS011;27171;51.812;19.514;2023-02-12T11:49:38;7.45;;;4.80;;
41426;SDS011;27171;51.812;19.514;2023-02-12T11:52:42;5.97;;;4.38;;
41426;SDS011;27171;51.812;19.514;2023-02-12T11:55:44;9.82;;;5.20;;
41426;SDS011;27171;51.812;19.514;2023-02-12T11:59:07;7.18;;;4.78;;
41426;SDS011;27171;51.812;19.514;2023-02-12T12:02:33;6.85;;;4.45;;
41426;SDS011;27171;51.812;19.514;2023-02-12T12:05:59;6.82;;;3.92;;
41426;SDS011;27171;51.812;19.514;2023-02-12T12:09:08;7.10;;;5.05;;
41426;SDS011;27171;51.812;19.514;2023-02-12T12:12:30;7.50;;;5.03;;
41426;SDS011;27171;51.812;19.514;2023-02-12T12:15:45;6.43;;;4.25;;
41426;SDS011;27171;51.812;19.514;2023-02-12T12:18:51;5.55;;;3.65;;
41426;SDS011;27171;51.812;19.514;2023-02-12T12:25:19;6.25;;;4.00;;
41426;SDS011;27171;51.812;19.514;2023-02-12T12:28:32;6.20;;;4.25;;
41426;SDS011;27171;51.812;19.514;2023-02-12T12:31:46;6.70;;;4.22;;
41426;SDS011;27171;51.812;19.514;2023-02-12T12:34:50;5.68;;;3.95;;
41426;SDS011;27171;51.812;19.514;2023-02-12T12:37:59;6.63;;;4.50;;
41426;SDS011;27171;51.812;19.514;2023-02-12T13:00:45;5.30;;;3.63;;
41426;SDS011;27171;51.812;19.514;2023-02-12T13:10:45;6.90;;;4.25;;
41426;SDS011;27171;51.812;19.514;2023-02-12T13:13:47;8.40;;;4.65;;
41426;SDS011;27171;51.812;19.514;2023-02-12T13:16:58;6.43;;;4.32;;
41426;SDS011;27171;51.812;19.514;2023-02-12T13:23:17;6.00;;;4.47;;
41426;SDS011;27171;51.812;19.514;2023-02-12T13:29:52;5.75;;;3.97;;
41426;SDS011;27171;51.812;19.514;2023-02-12T13:36:15;6.13;;;4.35;;
41426;SDS011;27171;51.812;19.514;2023-02-12T13:46:43;6.80;;;4.25;;
41426;SDS011;27171;51.812;19.514;2023-02-12T13:49:30;8.25;;;4.90;;
41426;SDS011;27171;51.812;19.514;2023-02-12T13:53:01;7.97;;;4.95;;
41426;SDS011;27171;51.812;19.514;2023-02-12T14:08:35;6.00;;;3.42;;
41426;SDS011;27171;51.812;19.514;2023-02-12T14:11:49;5.13;;;3.40;;
41426;SDS011;27171;51.812;19.514;2023-02-12T14:43:36;6.18;;;3.50;;
41426;SDS011;27171;51.812;19.514;2023-02-12T14:52:40;6.07;;;3.85;;
41426;SDS011;27171;51.812;19.514;2023-02-12T14:55:46;8.10;;;5.30;;
41426;SDS011;27171;51.812;19.514;2023-02-12T14:58:49;10.73;;;6.82;;
41426;SDS011;27171;51.812;19.514;2023-02-12T15:01:53;7.25;;;5.97;;
41426;SDS011;27171;51.812;19.514;2023-02-12T15:05:14;10.02;;;6.43;;
41426;SDS011;27171;51.812;19.514;2023-02-12T15:11:49;12.35;;;8.35;;
41426;SDS011;27171;51.812;19.514;2023-02-12T15:21:44;15.27;;;9.65;;
41426;SDS011;27171;51.812;19.514;2023-02-12T15:24:47;12.68;;;8.98;;
41426;SDS011;27171;51.812;19.514;2023-02-12T15:27:48;14.77;;;10.45;;
41426;SDS011;27171;51.812;19.514;2023-02-12T15:30:53;13.85;;;10.15;;
41426;SDS011;27171;51.812;19.514;2023-02-12T15:33:57;16.63;;;12.52;;
41426;SDS011;27171;51.812;19.514;2023-02-12T15:37:01;20.60;;;12.52;;
41426;SDS011;27171;51.812;19.514;2023-02-12T15:40:04;14.35;;;9.65;;
41426;SDS011;27171;51.812;19.514;2023-02-12T15:43:16;11.95;;;8.63;;
41426;SDS011;27171;51.812;19.514;2023-02-12T15:49:18;13.82;;;8.32;;
41426;SDS011;27171;51.812;19.514;2023-02-12T15:52:22;11.57;;;7.97;;
41426;SDS011;27171;51.812;19.514;2023-02-12T15:55:36;14.30;;;9.43;;
41426;SDS011;27171;51.812;19.514;2023-02-12T15:58:45;12.50;;;8.52;;
41426;SDS011;27171;51.812;19.514;2023-02-12T16:01:57;15.05;;;9.00;;
41426;SDS011;27171;51.812;19.514;2023-02-12T16:05:01;15.73;;;10.07;;
41426;SDS011;27171;51.812;19.514;2023-02-12T16:08:04;14.95;;;10.70;;
41426;SDS011;27171;51.812;19.514;2023-02-12T16:11:05;13.73;;;9.40;;
41426;SDS011;27171;51.812;19.514;2023-02-12T16:14:13;16.63;;;10.30;;
41426;SDS011;27171;51.812;19.514;2023-02-12T16:20:30;17.50;;;11.27;;
41426;SDS011;27171;51.812;19.514;2023-02-12T16:23:32;19.55;;;12.65;;
41426;SDS011;27171;51.812;19.514;2023-02-12T16:26:35;21.67;;;13.23;;
41426;SDS011;27171;51.812;19.514;2023-02-12T16:29:38;20.23;;;12.75;;
41426;SDS011;27171;51.812;19.514;2023-02-12T16:32:45;22.33;;;14.15;;
41426;SDS011;27171;51.812;19.514;2023-02-12T16:39:00;20.70;;;12.00;;
41426;SDS011;27171;51.812;19.514;2023-02-12T16:42:09;21.45;;;13.23;;
41426;SDS011;27171;51.812;19.514;2023-02-12T16:48:27;23.17;;;14.27;;
41426;SDS011;27171;51.812;19.514;2023-02-12T16:51:30;21.40;;;13.27;;
41426;SDS011;27171;51.812;19.514;2023-02-12T16:54:35;18.85;;;13.32;;
41426;SDS011;27171;51.812;19.514;2023-02-12T16:57:36;21.60;;;14.95;;
41426;SDS011;27171;51.812;19.514;2023-02-12T17:00:37;21.58;;;14.60;;
41426;SDS011;27171;51.812;19.514;2023-02-12T17:03:39;21.15;;;13.95;;
41426;SDS011;27171;51.812;19.514;2023-02-12T17:06:40;24.80;;;16.05;;
41426;SDS011;27171;51.812;19.514;2023-02-12T17:09:41;21.92;;;15.27;;
41426;SDS011;27171;51.812;19.514;2023-02-12T17:15:55;29.98;;;17.23;;
41426;SDS011;27171;51.812;19.514;2023-02-12T17:18:59;24.55;;;17.50;;
41426;SDS011;27171;51.812;19.514;2023-02-12T17:22:00;26.48;;;17.67;;
41426;SDS011;27171;51.812;19.514;2023-02-12T17:25:02;30.05;;;20.30;;
41426;SDS011;27171;51.812;19.514;2023-02-12T17:28:03;22.45;;;17.52;;
41426;SDS011;27171;51.812;19.514;2023-02-12T17:31:04;25.15;;;16.83;;
41426;SDS011;27171;51.812;19.514;2023-02-12T17:37:06;28.17;;;17.20;;
41426;SDS011;27171;51.812;19.514;2023-02-12T17:40:08;27.25;;;17.45;;
41426;SDS011;27171;51.812;19.514;2023-02-12T17:43:10;28.80;;;18.02;;
41426;SDS011;27171;51.812;19.514;2023-02-12T17:46:19;27.40;;;17.90;;
41426;SDS011;27171;51.812;19.514;2023-02-12T17:49:22;24.00;;;17.15;;
41426;SDS011;27171;51.812;19.514;2023-02-12T17:52:23;26.67;;;18.63;;
41426;SDS011;27171;51.812;19.514;2023-02-12T17:55:24;32.35;;;20.52;;
41426;SDS011;27171;51.812;19.514;2023-02-12T17:58:25;28.50;;;20.33;;
41426;SDS011;27171;51.812;19.514;2023-02-12T18:01:27;31.08;;;19.55;;
41426;SDS011;27171;51.812;19.514;2023-02-12T18:04:29;31.48;;;21.75;;
41426;SDS011;27171;51.812;19.514;2023-02-12T18:07:32;31.73;;;20.92;;
41426;SDS011;27171;51.812;19.514;2023-02-12T18:10:40;28.20;;;19.17;;
41426;SDS011;27171;51.812;19.514;2023-02-12T18:13:42;32.38;;;22.00;;
41426;SDS011;27171;51.812;19.514;2023-02-12T18:16:44;29.48;;;19.25;;
41426;SDS011;27171;51.812;19.514;2023-02-12T18:19:45;28.90;;;18.52;;
41426;SDS011;27171;51.812;19.514;2023-02-12T18:22:46;31.98;;;21.33;;
41426;SDS011;27171;51.812;19.514;2023-02-12T18:28:48;26.38;;;18.33;;
41426;SDS011;27171;51.812;19.514;2023-02-12T18:31:49;29.25;;;20.30;;
41426;SDS011;27171;51.812;19.514;2023-02-12T18:34:50;34.17;;;21.95;;
41426;SDS011;27171;51.812;19.514;2023-02-12T18:37:51;37.55;;;23.80;;
41426;SDS011;27171;51.812;19.514;2023-02-12T18:40:53;32.85;;;20.40;;
41426;SDS011;27171;51.812;19.514;2023-02-12T18:43:55;34.40;;;22.63;;
41426;SDS011;27171;51.812;19.514;2023-02-12T18:46:56;29.95;;;19.67;;
41426;SDS011;27171;51.812;19.514;2023-02-12T18:52:58;32.80;;;19.25;;
41426;SDS011;27171;51.812;19.514;2023-02-12T18:56:02;42.60;;;25.50;;
41426;SDS011;27171;51.812;19.514;2023-02-12T18:59:07;34.13;;;21.45;;
41426;SDS011;27171;51.812;19.514;2023-02-12T19:02:12;39.55;;;23.20;;
41426;SDS011;27171;51.812;19.514;2023-02-12T19:05:13;38.38;;;24.10;;
41426;SDS011;27171;51.812;19.514;2023-02-12T19:08:14;32.67;;;20.35;;
41426;SDS011;27171;51.812;19.514;2023-02-12T19:11:15;32.95;;;21.35;;
41426;SDS011;27171;51.812;19.514;2023-02-12T19:17:18;27.50;;;16.88;;
41426;SDS011;27171;51.812;19.514;2023-02-12T19:20:20;33.72;;;21.02;;
41426;SDS011;27171;51.812;19.514;2023-02-12T19:26:22;29.10;;;17.80;;
41426;SDS011;27171;51.812;19.514;2023-02-12T19:29:23;27.13;;;17.20;;
41426;SDS011;27171;51.812;19.514;2023-02-12T19:35:25;27.48;;;17.17;;
41426;SDS011;27171;51.812;19.514;2023-02-12T19:41:28;26.45;;;18.67;;
41426;SDS011;27171;51.812;19.514;2023-02-12T19:44:29;33.55;;;21.88;;
41426;SDS011;27171;51.812;19.514;2023-02-12T19:47:31;36.47;;;22.95;;
41426;SDS011;27171;51.812;19.514;2023-02-12T19:53:33;27.88;;;18.15;;
41426;SDS011;27171;51.812;19.514;2023-02-12T20:02:36;32.15;;;19.25;;
41426;SDS011;27171;51.812;19.514;2023-02-12T20:05:37;41.40;;;26.05;;
41426;SDS011;27171;51.812;19.514;2023-02-12T20:08:40;32.00;;;21.48;;
41426;SDS011;27171;51.812;19.514;2023-02-12T20:11:41;38.95;;;25.55;;
41426;SDS011;27171;51.812;19.514;2023-02-12T20:14:43;38.70;;;23.92;;
41426;SDS011;27171;51.812;19.514;2023-02-12T20:17:44;34.17;;;20.50;;
41426;SDS011;27171;51.812;19.514;2023-02-12T20:20:45;32.35;;;19.30;;
41426;SDS011;27171;51.812;19.514;2023-02-12T20:23:46;29.13;;;18.70;;
41426;SDS011;27171;51.812;19.514;2023-02-12T20:26:47;32.67;;;19.55;;
41426;SDS011;27171;51.812;19.514;2023-02-12T20:29:49;37.25;;;21.85;;
41426;SDS011;27171;51.812;19.514;2023-02-12T20:32:50;38.97;;;24.58;;
41426;SDS011;27171;51.812;19.514;2023-02-12T20:38:55;40.03;;;22.38;;
41426;SDS011;27171;51.812;19.514;2023-02-12T20:44:57;41.72;;;25.17;;
41426;SDS011;27171;51.812;19.514;2023-02-12T20:51:03;44.83;;;26.45;;
41426;SDS011;27171;51.812;19.514;2023-02-12T20:54:12;44.17;;;25.83;;
41426;SDS011;27171;51.812;19.514;2023-02-12T20:57:13;49.80;;;30.70;;
41426;SDS011;27171;51.812;19.514;2023-02-12T21:00:14;46.80;;;28.60;;
41426;SDS011;27171;51.812;19.514;2023-02-12T21:03:16;48.05;;;30.02;;
41426;SDS011;27171;51.812;19.514;2023-02-12T21:12:19;47.13;;;26.80;;
41426;SDS011;27171;51.812;19.514;2023-02-12T21:18:21;39.92;;;23.75;;
41426;SDS011;27171;51.812;19.514;2023-02-12T21:21:23;44.28;;;27.15;;
41426;SDS011;27171;51.812;19.514;2023-02-12T21:24:29;43.92;;;27.27;;
41426;SDS011;27171;51.812;19.514;2023-02-12T21:27:30;44.72;;;27.02;;
41426;SDS011;27171;51.812;19.514;2023-02-12T21:33:32;46.00;;;25.65;;
41426;SDS011;27171;51.812;19.514;2023-02-12T21:36:35;39.50;;;22.65;;
41426;SDS011;27171;51.812;19.514;2023-02-12T21:39:39;48.85;;;27.80;;
41426;SDS011;27171;51.812;19.514;2023-02-12T21:42:40;45.13;;;26.50;;
41426;SDS011;27171;51.812;19.514;2023-02-12T21:48:49;43.08;;;22.65;;
41426;SDS011;27171;51.812;19.514;2023-02-12T21:51:51;40.83;;;23.00;;
41426;SDS011;27171;51.812;19.514;2023-02-12T21:54:54;42.40;;;26.70;;
41426;SDS011;27171;51.812;19.514;2023-02-12T21:57:55;44.40;;;27.75;;
41426;SDS011;27171;51.812;19.514;2023-02-12T22:04:05;41.45;;;23.30;;
41426;SDS011;27171;51.812;19.514;2023-02-12T22:07:06;48.17;;;26.77;;
41426;SDS011;27171;51.812;19.514;2023-02-12T22:10:08;47.08;;;26.88;;
41426;SDS011;27171;51.812;19.514;2023-02-12T22:13:09;35.90;;;24.48;;
41426;SDS011;27171;51.812;19.514;2023-02-12T22:19:13;48.60;;;24.67;;
41426;SDS011;27171;51.812;19.514;2023-02-12T22:22:14;36.72;;;22.65;;
41426;SDS011;27171;51.812;19.514;2023-02-12T22:25:15;41.05;;;23.67;;
41426;SDS011;27171;51.812;19.514;2023-02-12T22:31:19;36.35;;;21.42;;
41426;SDS011;27171;51.812;19.514;2023-02-12T22:34:23;40.40;;;22.50;;
41426;SDS011;27171;51.812;19.514;2023-02-12T22:37:25;44.95;;;24.70;;
41426;SDS011;27171;51.812;19.514;2023-02-12T22:40:26;43.33;;;24.35;;
41426;SDS011;27171;51.812;19.514;2023-02-12T22:43:31;44.05;;;25.10;;
41426;SDS011;27171;51.812;19.514;2023-02-12T22:46:33;42.45;;;24.23;;
41426;SDS011;27171;51.812;19.514;2023-02-12T22:52:36;44.03;;;24.52;;
41426;SDS011;27171;51.812;19.514;2023-02-12T22:55:37;39.22;;;24.55;;
41426;SDS011;27171;51.812;19.514;2023-02-12T23:01:39;38.75;;;21.95;;
41426;SDS011;27171;51.812;19.514;2023-02-12T23:04:41;44.95;;;24.92;;
41426;SDS011;27171;51.812;19.514;2023-02-12T23:07:42;41.88;;;23.63;;
41426;SDS011;27171;51.812;19.514;2023-02-12T23:10:43;37.70;;;22.13;;
41426;SDS011;27171;51.812;19.514;2023-02-12T23:16:45;37.88;;;19.70;;
41426;SDS011;27171;51.812;19.514;2023-02-12T23:19:47;37.15;;;22.02;;
41426;SDS011;27171;51.812;19.514;2023-02-12T23:22:48;50.53;;;26.27;;
41426;SDS011;27171;51.812;19.514;2023-02-12T23:25:49;38.33;;;22.38;;
41426;SDS011;27171;51.812;19.514;2023-02-12T23:28:50;42.47;;;24.88;;
41426;SDS011;27171;51.812;19.514;2023-02-12T23:31:51;40.47;;;23.52;;
41426;SDS011;27171;51.812;19.514;2023-02-12T23:34:52;38.08;;;22.35;;
41426;SDS011;27171;51.812;19.514;2023-02-12T23:37:54;30.95;;;19.00;;
41426;SDS011;27171;51.812;19.514;2023-02-12T23:40:55;40.75;;;21.48;;
41426;SDS011;27171;51.812;19.514;2023-02-12T23:43:57;36.65;;;19.75;;
41426;SDS011;27171;51.812;19.514;2023-02-12T23:46:58;39.00;;;20.02;;
41426;SDS011;27171;51.812;19.514;2023-02-12T23:49:59;33.05;;;20.02;;
41426;SDS011;27171;51.812;19.514;2023-02-12T23:53:00;36.47;;;20.85;;
41426;SDS011;27171;51.812;19.514;2023-02-12T23:56:01;31.65;;;19.60;;
41426;SDS011;27171;51.812;19.514;2023-02-12T23:59:02;33.90;;;20.38;;
